Time;durP1;ratioP1;P1;durP2;ratioP2;P2;SDS_P1;SDS_P2;PMS_P1;PMS_P2;Temp;Humidity;BMP_temperature;BMP_pressure;BME280_temperature;BME280_humidity;BME280_pressure;Samples;Min_cycle;Max_cycle;Signal;HPM_P1;HPM_P2
2023/12/25 00:01:51;;;;;;;1.10;0.30;;;;;;;9.12;100.00;98528.42;111597;1206;139149;-70
2023/12/25 00:04:16;;;;;;;2.90;0.30;;;;;;;9.09;100.00;98533.92;111643;1216;97899;-70
2023/12/25 00:06:41;;;;;;;0.30;0.30;;;;;;;9.06;100.00;98549.30;111738;1205;98955;-70
2023/12/25 00:09:06;;;;;;;0.40;0.20;;;;;;;9.04;100.00;98553.57;111581;1205;138436;-71
2023/12/25 00:11:32;;;;;;;0.80;0.40;;;;;;;9.00;100.00;98548.49;111760;1206;99029;-70
2023/12/25 00:13:57;;;;;;;0.40;0.30;;;;;;;8.97;100.00;98547.98;111499;1211;138769;-71
2023/12/25 00:16:26;;;;;;;0.30;0.20;;;;;;;8.94;100.00;98554.27;111640;1206;98944;-71
2023/12/25 00:18:52;;;;;;;1.00;0.50;;;;;;;8.92;100.00;98556.38;111520;1208;138779;-71
2023/12/25 00:21:18;;;;;;;0.40;0.20;;;;;;;8.89;100.00;98551.59;111621;1206;99638;-71
2023/12/25 00:23:44;;;;;;;0.80;0.20;;;;;;;8.90;100.00;98547.62;111757;1206;98989;-71
2023/12/25 00:26:09;;;;;;;1.70;0.20;;;;;;;8.90;100.00;98555.41;111490;1206;139389;-71
2023/12/25 00:28:34;;;;;;;1.20;0.20;;;;;;;8.88;100.00;98559.69;111630;1206;100436;-71
2023/12/25 00:30:59;;;;;;;1.60;0.20;;;;;;;8.85;100.00;98563.23;111632;1208;139980;-71
2023/12/25 00:33:25;;;;;;;0.20;0.10;;;;;;;8.83;100.00;98565.23;111637;1209;100222;-71
2023/12/25 00:35:50;;;;;;;0.50;0.40;;;;;;;8.79;100.00;98572.78;111731;1206;99038;-71
2023/12/25 00:38:15;;;;;;;0.80;0.30;;;;;;;8.77;100.00;98573.06;111503;1208;138471;-71
2023/12/25 00:40:40;;;;;;;1.00;0.30;;;;;;;8.73;100.00;98581.86;111768;1208;98987;-71
2023/12/25 00:43:06;;;;;;;2.20;0.40;;;;;;;8.69;100.00;98598.73;111557;1210;138586;-72
2023/12/25 00:45:31;;;;;;;0.30;0.20;;;;;;;8.67;100.00;98605.83;111599;1206;99214;-72
2023/12/25 00:47:56;;;;;;;2.50;0.30;;;;;;;8.63;100.00;98612.66;111745;1209;99081;-71
2023/12/25 00:50:21;;;;;;;2.60;0.30;;;;;;;8.62;100.00;98617.74;111595;1206;138751;-71
2023/12/25 00:52:47;;;;;;;4.50;0.60;;;;;;;8.58;100.00;98618.50;111768;1208;98924;-71
2023/12/25 00:55:13;;;;;;;2.10;0.40;;;;;;;8.59;100.00;98627.40;111533;1208;140493;-72
2023/12/25 00:57:38;;;;;;;1.00;0.40;;;;;;;8.56;100.00;98618.52;111669;1206;97898;-72
2023/12/25 01:00:04;;;;;;;1.60;0.40;;;;;;;8.53;100.00;98620.84;111695;1206;99001;-72
2023/12/25 01:02:30;;;;;;;1.30;0.40;;;;;;;8.49;100.00;98617.90;111613;1210;138679;-72
2023/12/25 01:04:55;;;;;;;3.60;0.60;;;;;;;8.49;100.00;98628.44;111638;1209;98948;-71
2023/12/25 01:07:20;;;;;;;2.40;0.30;;;;;;;8.47;100.00;98621.08;111609;1209;139662;-71
2023/12/25 01:09:45;;;;;;;4.40;1.00;;;;;;;8.48;100.00;98624.39;111672;1206;98952;-72
2023/12/25 01:12:11;;;;;;;1.70;0.50;;;;;;;8.42;100.00;98619.77;111702;1206;99450;-72
2023/12/25 01:14:37;;;;;;;1.30;0.20;;;;;;;8.42;100.00;98624.96;111541;1209;138568;-71
2023/12/25 01:17:02;;;;;;;2.40;0.30;;;;;;;8.41;100.00;98626.25;111618;1206;99051;-72
2023/12/25 01:19:27;;;;;;;0.30;0.30;;;;;;;8.37;100.00;98625.08;111575;1205;139225;-71
2023/12/25 01:21:52;;;;;;;2.00;0.30;;;;;;;8.34;100.00;98623.73;111654;1206;98929;-71
2023/12/25 01:24:17;;;;;;;1.20;0.40;;;;;;;8.34;100.00;98622.79;111739;1209;97864;-72
2023/12/25 01:26:43;;;;;;;2.30;0.60;;;;;;;8.34;100.00;98615.16;111556;1209;139133;-71
2023/12/25 01:29:08;;;;;;;4.00;0.50;;;;;;;8.33;100.00;98614.84;111721;1206;99657;-71
2023/12/25 01:31:35;;;;;;;4.20;0.60;;;;;;;8.33;100.00;98636.59;111521;1210;141017;-72
2023/12/25 01:34:01;;;;;;;1.80;0.70;;;;;;;8.32;100.00;98649.30;111694;1209;98992;-71
2023/12/25 01:36:26;;;;;;;4.30;0.60;;;;;;;8.31;100.00;98650.06;111639;1206;99075;-72
2023/12/25 01:38:51;;;;;;;2.40;0.60;;;;;;;8.30;100.00;98658.32;111633;1208;139033;-71
2023/12/25 01:41:17;;;;;;;3.20;0.60;;;;;;;8.28;100.00;98660.73;111664;1206;98934;-72
2023/12/25 01:43:42;;;;;;;1.10;0.60;;;;;;;8.26;100.00;98667.27;111610;1209;138661;-72
2023/12/25 01:46:12;;;;;;;1.70;0.40;;;;;;;8.25;100.00;98676.74;111631;1208;98915;-72
2023/12/25 01:48:39;;;;;;;6.60;0.70;;;;;;;8.25;100.00;98677.13;111651;1209;99993;-72
2023/12/25 01:51:04;;;;;;;4.90;1.30;;;;;;;8.25;100.00;98678.55;111559;1206;138610;-72
2023/12/25 01:53:30;;;;;;;3.80;0.80;;;;;;;8.23;100.00;98687.92;111607;1206;98919;-71
2023/12/25 01:55:55;;;;;;;3.00;0.80;;;;;;;8.23;100.00;98691.85;111544;1219;139135;-72
2023/12/25 01:58:21;;;;;;;1.20;0.80;;;;;;;8.25;100.00;98690.30;111567;1206;100495;-72
2023/12/25 02:00:46;;;;;;;2.70;0.60;;;;;;;8.25;100.00;98705.04;111704;1210;98949;-71
2023/12/25 02:03:11;;;;;;;2.40;0.60;;;;;;;8.25;100.00;98704.55;111483;1206;139162;-71
2023/12/25 02:05:37;;;;;;;2.00;0.40;;;;;;;8.26;100.00;98704.67;111667;1205;99045;-72
2023/12/25 02:08:03;;;;;;;3.00;0.70;;;;;;;8.24;100.00;98700.51;111564;1209;138989;-71
2023/12/25 02:10:30;;;;;;;3.50;0.40;;;;;;;8.24;100.00;98703.56;111634;1207;99149;-72
2023/12/25 02:12:59;;;;;;;1.80;0.50;;;;;;;8.24;100.00;98703.73;111655;1206;138725;-72
2023/12/25 02:15:26;;;;;;;4.50;0.60;;;;;;;8.23;100.00;98705.73;111668;1206;106950;-72
2023/12/25 02:17:53;;;;;;;1.00;0.40;;;;;;;8.22;100.00;98704.72;111629;1208;97805;-72
2023/12/25 02:20:20;;;;;;;2.90;1.00;;;;;;;8.22;100.00;98715.21;111515;1206;138663;-72
2023/12/25 02:22:45;;;;;;;3.70;0.60;;;;;;;8.18;100.00;98727.41;111636;1206;98937;-72
2023/12/25 02:25:24;;;;;;;1.50;0.50;;;;;;;8.13;100.00;98721.98;111562;1205;139106;-72
2023/12/25 02:27:49;;;;;;;2.30;0.80;;;;;;;8.11;100.00;98725.35;111652;1208;98926;-72
2023/12/25 02:30:15;;;;;;;3.30;0.60;;;;;;;8.10;100.00;98734.50;111668;1209;100885;-72
2023/12/25 02:32:41;;;;;;;2.30;0.60;;;;;;;8.10;100.00;98726.81;111602;1206;138697;-72
2023/12/25 02:35:06;;;;;;;6.50;0.60;;;;;;;8.10;100.00;98738.17;111669;1205;98919;-70
2023/12/25 02:37:31;;;;;;;2.70;0.50;;;;;;;8.10;100.00;98734.83;111050;1206;139367;-72
2023/12/25 02:39:57;;;;;;;6.60;1.00;;;;;;;8.11;100.00;98744.59;111684;1211;99443;-72
2023/12/25 02:42:22;;;;;;;0.90;0.50;;;;;;;8.11;100.00;98744.71;111602;1209;98986;-72
2023/12/25 02:44:47;;;;;;;1.00;0.40;;;;;;;8.12;100.00;98743.03;111598;1210;138627;-72
2023/12/25 02:47:12;;;;;;;2.30;0.30;;;;;;;8.12;100.00;98747.48;111602;1210;99063;-72
2023/12/25 02:49:38;;;;;;;1.20;0.50;;;;;;;8.13;100.00;98747.97;111593;1209;139614;-72
2023/12/25 02:52:03;;;;;;;4.30;0.80;;;;;;;8.14;100.00;98759.10;111632;1206;98936;-72
2023/12/25 02:54:28;;;;;;;0.60;0.30;;;;;;;8.16;100.00;98759.34;111630;1205;99071;-72
2023/12/25 02:56:54;;;;;;;3.60;0.50;;;;;;;8.18;100.00;98758.55;111638;1206;139530;-72
2023/12/25 02:59:19;;;;;;;1.70;0.40;;;;;;;8.19;100.00;98755.45;111642;1209;98990;-72
2023/12/25 03:01:44;;;;;;;0.10;0.10;;;;;;;8.20;100.00;98762.67;111598;1205;138654;-72
2023/12/25 03:04:09;;;;;;;1.10;0.60;;;;;;;8.21;100.00;98761.57;111619;1206;98990;-72
2023/12/25 03:06:35;;;;;;;3.10;0.40;;;;;;;8.21;100.00;98770.06;111711;1206;99375;-72
2023/12/25 03:09:00;;;;;;;1.70;0.40;;;;;;;8.23;100.00;98781.55;111520;1209;139266;-73
2023/12/25 03:11:25;;;;;;;1.10;0.60;;;;;;;8.23;100.00;98786.34;111661;1209;98923;-72
2023/12/25 03:13:50;;;;;;;1.30;0.60;;;;;;;8.23;100.00;98787.77;111636;1208;140118;-72
2023/12/25 03:16:18;;;;;;;3.10;0.40;;;;;;;8.23;100.00;98787.77;111639;1205;99048;-73
2023/12/25 03:18:43;;;;;;;2.10;0.40;;;;;;;8.23;100.00;98794.89;111662;1211;99031;-73
2023/12/25 03:21:09;;;;;;;3.70;0.60;;;;;;;8.22;100.00;98797.74;111627;1208;138678;-72
2023/12/25 03:23:34;;;;;;;2.70;0.30;;;;;;;8.23;100.00;98792.02;111610;1209;97730;-72
2023/12/25 03:25:59;;;;;;;2.20;0.50;;;;;;;8.25;100.00;98792.79;111623;1209;139188;-73
2023/12/25 03:28:26;;;;;;;1.00;0.40;;;;;;;8.26;100.00;98791.11;111558;1210;99785;-73
2023/12/25 03:30:52;;;;;;;3.60;0.60;;;;;;;8.26;100.00;98787.72;111601;1209;99820;-72
2023/12/25 03:33:17;;;;;;;0.60;0.30;;;;;;;8.26;100.00;98781.31;111505;1206;138251;-72
2023/12/25 03:35:42;;;;;;;1.30;0.40;;;;;;;8.25;100.00;98788.16;111684;1206;98942;-73
2023/12/25 03:38:07;;;;;;;5.30;0.50;;;;;;;8.24;100.00;98791.27;111500;1211;139235;-72
2023/12/25 03:40:33;;;;;;;3.00;0.40;;;;;;;8.26;100.00;98792.75;111696;1205;98981;-72
2023/12/25 03:42:58;;;;;;;1.00;0.40;;;;;;;8.27;100.00;98795.69;111569;1209;139943;-72
2023/12/25 03:45:24;;;;;;;3.80;0.30;;;;;;;8.27;100.00;98796.02;111612;1209;99013;-73
2023/12/25 03:47:49;;;;;;;2.90;0.60;;;;;;;8.27;100.00;98802.43;111682;1209;99098;-73
2023/12/25 03:50:14;;;;;;;4.60;0.60;;;;;;;8.28;100.00;98805.92;111505;1209;141847;-72
2023/12/25 03:52:39;;;;;;;2.40;0.40;;;;;;;8.29;100.00;98810.67;111727;1206;99057;-72
2023/12/25 03:55:05;;;;;;;2.80;0.50;;;;;;;8.30;100.00;98810.98;111532;1205;139047;-72
2023/12/25 03:57:30;;;;;;;3.30;0.50;;;;;;;8.31;100.00;98825.33;111671;1208;99023;-73
2023/12/25 03:59:55;;;;;;;2.20;0.40;;;;;;;8.32;100.00;98824.55;111622;1206;99009;-73
2023/12/25 04:02:21;;;;;;;4.20;0.50;;;;;;;8.33;100.00;98832.52;111500;1209;138984;-72
2023/12/25 04:04:46;;;;;;;3.30;1.00;;;;;;;8.35;100.00;98833.98;111716;1209;99011;-73
2023/12/25 04:07:11;;;;;;;2.90;0.50;;;;;;;8.39;100.00;98818.45;111457;1206;138740;-72
2023/12/25 04:09:36;;;;;;;2.50;0.60;;;;;;;8.41;100.00;98813.47;111692;1206;98953;-73
2023/12/25 04:12:02;;;;;;;2.40;0.30;;;;;;;8.43;100.00;98816.37;111633;1206;98989;-73
2023/12/25 04:14:28;;;;;;;3.70;0.50;;;;;;;8.46;100.00;98812.66;111559;1209;139252;-73
2023/12/25 04:16:53;;;;;;;1.50;0.30;;;;;;;8.47;100.00;98810.11;111670;1207;98926;-73
2023/12/25 04:19:18;;;;;;;1.20;0.60;;;;;;;8.45;100.00;98809.65;111466;1205;140374;-72
2023/12/25 04:21:43;;;;;;;1.80;0.50;;;;;;;8.44;100.00;98806.02;111698;1205;99035;-72
2023/12/25 04:24:09;;;;;;;3.50;0.90;;;;;;;8.44;100.00;98807.96;111619;1207;99019;-72
2023/12/25 04:26:34;;;;;;;11.70;1.10;;;;;;;8.49;100.00;98805.02;111492;1209;139064;-72
2023/12/25 04:29:00;;;;;;;3.00;0.90;;;;;;;8.50;100.00;98812.73;111686;1209;98942;-73
2023/12/25 04:31:25;;;;;;;6.30;0.80;;;;;;;8.53;100.00;98807.41;111496;1205;139210;-73
2023/12/25 04:33:50;;;;;;;4.90;0.70;;;;;;;8.53;100.00;98807.96;111673;1207;99525;-73
2023/12/25 04:36:16;;;;;;;5.40;0.90;;;;;;;8.52;100.00;98799.63;111577;1209;99020;-73
2023/12/25 04:38:41;;;;;;;6.70;0.80;;;;;;;8.51;100.00;98796.31;111568;1205;139667;-73
2023/12/25 04:41:07;;;;;;;2.50;0.40;;;;;;;8.50;100.00;98802.22;111606;1206;110730;-73
2023/12/25 04:43:32;;;;;;;3.50;1.10;;;;;;;8.50;100.00;98797.05;111480;1209;139043;-73
2023/12/25 04:45:58;;;;;;;2.10;0.50;;;;;;;8.49;100.00;98790.23;111658;1205;99001;-73
2023/12/25 04:48:23;;;;;;;5.50;0.80;;;;;;;8.47;100.00;98788.73;111630;1208;98948;-73
2023/12/25 04:50:48;;;;;;;2.10;0.70;;;;;;;8.45;100.00;98798.29;111632;1206;139178;-73
2023/12/25 04:53:14;;;;;;;2.20;0.70;;;;;;;8.44;100.00;98791.91;111597;1206;99017;-73
2023/12/25 04:55:40;;;;;;;2.80;0.50;;;;;;;8.44;100.00;98797.59;111507;1206;139455;-73
2023/12/25 04:58:05;;;;;;;1.80;0.90;;;;;;;8.45;100.00;98807.89;111705;1208;99100;-73
2023/12/25 05:00:32;;;;;;;5.60;1.50;;;;;;;8.47;100.00;98798.00;111616;1210;99026;-73
2023/12/25 05:02:57;;;;;;;4.40;0.80;;;;;;;8.49;100.00;98801.08;111530;1206;138413;-73
2023/12/25 05:05:23;;;;;;;7.90;0.90;;;;;;;8.52;100.00;98798.04;111744;1209;98951;-73
2023/12/25 05:07:48;;;;;;;2.80;0.70;;;;;;;8.53;100.00;98797.23;111478;1209;138575;-73
2023/12/25 05:10:13;;;;;;;3.40;1.10;;;;;;;8.53;100.00;98797.77;111617;1206;99047;-73
2023/12/25 05:12:39;;;;;;;2.80;0.90;;;;;;;8.54;100.00;98809.65;111602;1206;99078;-73
2023/12/25 05:15:04;;;;;;;8.70;1.40;;;;;;;8.55;100.00;98803.72;111388;1210;139180;-73
2023/12/25 05:17:30;;;;;;;4.70;1.00;;;;;;;8.55;100.00;98789.30;111621;1206;98878;-73
2023/12/25 05:19:55;;;;;;;2.00;0.80;;;;;;;8.55;100.00;98786.79;111413;1210;139015;-73
2023/12/25 05:22:20;;;;;;;7.30;1.30;;;;;;;8.56;100.00;98787.06;111561;1208;98984;-73
2023/12/25 05:24:45;;;;;;;4.80;1.00;;;;;;;8.58;100.00;98788.37;111696;1209;99039;-73
2023/12/25 05:27:11;;;;;;;5.80;0.90;;;;;;;8.59;100.00;98789.92;111514;1207;139281;-73
2023/12/25 05:29:37;;;;;;;5.30;1.30;;;;;;;8.60;100.00;98795.55;111641;1210;98960;-73
2023/12/25 05:32:02;;;;;;;6.20;1.00;;;;;;;8.60;100.00;98788.76;111562;1209;139258;-73
2023/12/25 05:34:27;;;;;;;6.60;0.80;;;;;;;8.61;100.00;98791.23;111626;1206;99037;-73
2023/12/25 05:36:53;;;;;;;5.50;1.30;;;;;;;8.61;100.00;98794.23;111688;1208;98942;-73
2023/12/25 05:39:19;;;;;;;5.50;1.10;;;;;;;8.61;100.00;98799.02;111631;1209;99845;-73
2023/12/25 05:41:44;;;;;;;5.20;1.10;;;;;;;8.61;100.00;98797.45;111701;1206;99294;-73
2023/12/25 05:44:10;;;;;;;3.20;0.90;;;;;;;8.61;100.00;98790.66;111604;1206;139348;-73
2023/12/25 05:46:36;;;;;;;8.30;0.90;;;;;;;8.62;100.00;98795.77;111602;1210;98972;-73
2023/12/25 05:49:02;;;;;;;3.90;0.80;;;;;;;8.63;100.00;98798.19;111540;1206;139523;-72
2023/12/25 05:51:27;;;;;;;4.90;1.30;;;;;;;8.65;100.00;98815.18;111689;1210;97897;-73
2023/12/25 05:53:52;;;;;;;4.50;1.20;;;;;;;8.66;100.00;98809.00;111639;1206;99285;-73
2023/12/25 05:56:18;;;;;;;2.60;0.90;;;;;;;8.67;100.00;98817.84;111535;1210;139003;-73
2023/12/25 05:58:43;;;;;;;5.20;1.20;;;;;;;8.67;100.00;98815.52;111704;1209;100237;-73
2023/12/25 06:01:12;;;;;;;3.70;1.10;;;;;;;8.69;100.00;98818.27;111560;1207;138997;-73
2023/12/25 06:03:38;;;;;;;2.40;0.90;;;;;;;8.70;100.00;98817.34;111688;1209;98983;-73
2023/12/25 06:06:04;;;;;;;4.70;1.00;;;;;;;8.72;100.00;98805.63;111674;1207;98995;-73
2023/12/25 06:08:29;;;;;;;6.30;1.10;;;;;;;8.73;100.00;98813.21;111560;1205;139156;-74
2023/12/25 06:10:54;;;;;;;3.60;0.60;;;;;;;8.74;100.00;98809.02;111630;1206;99023;-73
2023/12/25 06:13:20;;;;;;;3.20;0.80;;;;;;;8.75;100.00;98801.11;111560;1210;138904;-73
2023/12/25 06:15:45;;;;;;;5.90;2.00;;;;;;;8.76;100.00;98793.23;111537;1210;98939;-73
2023/12/25 06:18:10;;;;;;;4.50;0.90;;;;;;;8.76;100.00;98792.54;111645;1208;98939;-73
2023/12/25 06:20:35;;;;;;;3.40;1.00;;;;;;;8.76;100.00;98798.77;111539;1206;138603;-73
2023/12/25 06:23:00;;;;;;;3.10;0.80;;;;;;;8.74;100.00;98803.52;111610;1206;99043;-73
2023/12/25 06:25:26;;;;;;;2.90;0.80;;;;;;;8.74;100.00;98794.09;111562;1205;139749;-73
2023/12/25 06:27:51;;;;;;;5.50;0.90;;;;;;;8.74;100.00;98791.38;111603;1207;98944;-73
2023/12/25 06:30:16;;;;;;;5.70;1.20;;;;;;;8.75;100.00;98792.76;111666;1209;98469;-73
2023/12/25 06:32:43;;;;;;;4.40;1.80;;;;;;;8.76;100.00;98797.52;111564;1205;139133;-73
2023/12/25 06:35:09;;;;;;;3.90;1.00;;;;;;;8.76;100.00;98799.27;111685;1206;98942;-73
2023/12/25 06:37:34;;;;;;;3.90;1.10;;;;;;;8.75;100.00;98799.36;111530;1205;138897;-73
2023/12/25 06:39:59;;;;;;;3.10;1.10;;;;;;;8.73;100.00;98802.13;111698;1206;106523;-74
2023/12/25 06:42:24;;;;;;;4.00;1.20;;;;;;;8.72;100.00;98799.36;111759;1206;98915;-73
2023/12/25 06:44:50;;;;;;;3.80;1.10;;;;;;;8.71;100.00;98806.92;111753;1209;139001;-73
2023/12/25 06:47:15;;;;;;;1.70;0.70;;;;;;;8.71;100.00;98798.20;111746;1206;98983;-74
2023/12/25 06:49:40;;;;;;;7.60;0.90;;;;;;;8.70;100.00;98807.71;111633;1207;139270;-73
2023/12/25 06:52:06;;;;;;;4.70;0.80;;;;;;;8.69;100.00;98816.69;111829;1209;99024;-73
2023/12/25 06:54:31;;;;;;;2.40;0.90;;;;;;;8.69;100.00;98815.63;111683;1208;97493;-73
2023/12/25 06:56:56;;;;;;;8.30;0.90;;;;;;;8.68;100.00;98831.14;111734;1210;139578;-73
2023/12/25 06:59:21;;;;;;;3.70;1.00;;;;;;;8.67;100.00;98834.77;111700;1206;98958;-73
2023/12/25 07:01:47;;;;;;;5.60;1.40;;;;;;;8.67;100.00;98830.86;111710;1209;138634;-73
2023/12/25 07:04:12;;;;;;;4.90;1.00;;;;;;;8.67;100.00;98832.30;111773;1206;99048;-74
2023/12/25 07:06:37;;;;;;;3.40;1.00;;;;;;;8.69;100.00;98819.01;111732;1209;99364;-73
2023/12/25 07:09:03;;;;;;;6.10;1.40;;;;;;;8.70;100.00;98815.19;111584;1210;139976;-73
2023/12/25 07:11:28;;;;;;;7.40;1.30;;;;;;;8.69;100.00;98809.71;111726;1205;101732;-73
2023/12/25 07:13:56;;;;;;;6.50;1.40;;;;;;;8.69;100.00;98819.70;111738;1209;138761;-73
2023/12/25 07:16:26;;;;;;;5.50;1.10;;;;;;;8.69;100.00;98819.89;111717;1210;98955;-72
2023/12/25 07:18:54;;;;;;;5.60;1.20;;;;;;;8.69;100.00;98823.97;111681;1208;98987;-73
2023/12/25 07:21:21;;;;;;;3.60;2.40;;;;;;;8.69;100.00;98827.53;111952;1208;112552;-73
2023/12/25 07:23:46;;;;;;;5.90;1.10;;;;;;;8.70;100.00;98823.39;111742;1206;99029;-74
2023/12/25 07:26:11;;;;;;;4.20;1.30;;;;;;;8.69;100.00;98825.91;111717;1205;138599;-73
2023/12/25 07:28:36;;;;;;;3.20;0.90;;;;;;;8.70;100.00;98835.64;111795;1210;99771;-73
2023/12/25 07:31:02;;;;;;;5.50;1.20;;;;;;;8.71;100.00;98838.42;111686;1209;139353;-72
2023/12/25 07:33:27;;;;;;;8.50;2.00;;;;;;;8.72;100.00;98844.59;111741;1205;98991;-73
2023/12/25 07:35:53;;;;;;;3.30;1.10;;;;;;;8.74;100.00;98826.67;111748;1208;99048;-73
2023/12/25 07:38:19;;;;;;;4.60;1.20;;;;;;;8.75;100.00;98833.39;111670;1207;139025;-73
2023/12/25 07:40:44;;;;;;;4.20;1.40;;;;;;;8.75;100.00;98832.30;111805;1209;99342;-73
2023/12/25 07:43:12;;;;;;;4.40;1.20;;;;;;;8.75;100.00;98838.90;111657;1208;139324;-73
2023/12/25 07:45:37;;;;;;;9.10;2.40;;;;;;;8.75;100.00;98840.33;111735;1206;98933;-72
2023/12/25 07:48:03;;;;;;;6.20;1.40;;;;;;;8.75;100.00;98837.44;111795;1209;98997;-73
2023/12/25 07:50:28;;;;;;;4.50;1.10;;;;;;;8.75;100.00;98832.99;111634;1206;139096;-72
2023/12/25 07:52:53;;;;;;;3.10;1.30;;;;;;;8.76;100.00;98823.30;111814;1208;99009;-74
2023/12/25 07:55:19;;;;;;;3.70;1.60;;;;;;;8.76;100.00;98829.40;111699;1209;139525;-73
2023/12/25 07:57:44;;;;;;;5.00;1.00;;;;;;;8.76;100.00;98829.00;111763;1208;98941;-72
2023/12/25 08:00:10;;;;;;;3.10;1.10;;;;;;;8.79;100.00;98829.02;111723;1206;98948;-72
2023/12/25 08:02:35;;;;;;;9.70;1.40;;;;;;;8.81;100.00;98843.68;111584;1210;138738;-72
2023/12/25 08:05:02;;;;;;;5.10;0.90;;;;;;;8.84;100.00;98843.13;111688;1207;99173;-72
2023/12/25 08:07:27;;;;;;;3.50;1.40;;;;;;;8.86;100.00;98850.31;111749;1210;138656;-73
2023/12/25 08:09:53;;;;;;;5.80;1.30;;;;;;;8.88;100.00;98847.70;111727;1210;105613;-72
2023/12/25 08:12:18;;;;;;;2.30;0.80;;;;;;;8.90;100.00;98844.15;111735;1206;99005;-73
2023/12/25 08:14:43;;;;;;;4.90;1.00;;;;;;;8.91;100.00;98844.98;111725;1206;139070;-72
2023/12/25 08:17:08;;;;;;;4.30;1.10;;;;;;;8.95;100.00;98847.59;111785;1209;99037;-72
2023/12/25 08:19:34;;;;;;;6.00;1.00;;;;;;;8.99;100.00;98858.35;111682;1210;138639;-72
2023/12/25 08:21:59;;;;;;;4.10;0.90;;;;;;;9.00;100.00;98865.56;111794;1209;98931;-72
2023/12/25 08:24:25;;;;;;;3.80;0.90;;;;;;;9.07;100.00;98865.86;111787;1208;98999;-72
2023/12/25 08:26:50;;;;;;;2.20;0.70;;;;;;;9.09;100.00;98864.23;111538;1208;138706;-72
2023/12/25 08:29:16;;;;;;;3.20;0.90;;;;;;;9.16;100.00;98875.61;111703;1209;97949;-72
2023/12/25 08:31:41;;;;;;;2.70;0.90;;;;;;;9.18;100.00;98871.52;111689;1207;138919;-72
2023/12/25 08:34:06;;;;;;;2.40;0.60;;;;;;;9.19;100.00;98892.67;111774;1211;98994;-71
2023/12/25 08:36:32;;;;;;;2.10;0.80;;;;;;;9.18;100.00;98902.33;111793;1208;100133;-71
2023/12/25 08:38:57;;;;;;;1.50;0.70;;;;;;;9.18;100.00;98901.63;110903;1221;141819;-72
2023/12/25 08:41:22;;;;;;;2.70;0.70;;;;;;;9.18;100.00;98902.71;110857;1214;99131;-73
2023/12/25 08:43:48;;;;;;;4.60;0.70;;;;;;;9.18;100.00;98875.85;111027;1207;138552;-70
2023/12/25 08:46:13;;;;;;;2.00;1.00;;;;;;;9.16;100.00;98884.48;110974;1219;98945;-71
2023/12/25 08:48:39;;;;;;;2.80;0.90;;;;;;;9.15;100.00;98872.29;110926;1210;99129;-74
2023/12/25 08:51:04;;;;;;;2.70;1.00;;;;;;;9.14;100.00;98876.08;110732;1211;139178;-73
2023/12/25 08:53:29;;;;;;;4.60;1.00;;;;;;;9.13;100.00;98889.89;110847;1208;99077;-71
2023/12/25 08:55:55;;;;;;;3.60;1.10;;;;;;;9.12;100.00;98874.76;110902;1210;138487;-71
2023/12/25 08:58:21;;;;;;;7.10;1.20;;;;;;;9.14;100.00;98876.78;110920;1210;98963;-71
2023/12/25 09:00:47;;;;;;;2.90;1.10;;;;;;;9.13;100.00;98872.23;110907;1216;98962;-71
2023/12/25 09:03:12;;;;;;;4.80;0.90;;;;;;;9.12;100.00;98882.41;111539;1210;140010;-70
2023/12/25 09:05:37;;;;;;;3.10;0.80;;;;;;;9.09;100.00;98902.25;110958;1206;99053;-70
2023/12/25 09:08:06;;;;;;;2.60;1.00;;;;;;;9.11;100.00;98900.16;110814;1211;138611;-71
2023/12/25 09:10:31;;;;;;;6.50;1.10;;;;;;;9.07;100.00;98902.33;111012;1210;108545;-70
2023/12/25 09:12:57;;;;;;;4.60;0.90;;;;;;;9.08;100.00;98901.93;110859;1211;99521;-70
2023/12/25 09:15:28;;;;;;;6.80;0.90;;;;;;;9.04;100.00;98908.94;110770;1211;138856;-70
2023/12/25 09:17:54;;;;;;;4.60;1.10;;;;;;;9.03;100.00;98910.84;110909;1210;100902;-70
2023/12/25 09:20:19;;;;;;;1.30;0.70;;;;;;;9.00;100.00;98927.02;110863;1208;138808;-71
2023/12/25 09:22:44;;;;;;;7.80;3.20;;;;;;;8.98;100.00;98923.63;110823;1212;99847;-70
2023/12/25 09:25:12;;;;;;;2.80;1.20;;;;;;;8.95;100.00;98930.96;110823;1211;140626;-70
2023/12/25 09:27:37;;;;;;;5.70;1.50;;;;;;;8.92;100.00;98948.73;110892;1210;99244;-71
2023/12/25 09:30:04;;;;;;;6.40;2.00;;;;;;;8.93;100.00;98954.06;110979;1211;98902;-69
2023/12/25 09:32:30;;;;;;;9.40;1.60;;;;;;;8.92;100.00;98961.09;111230;1211;138539;-72
2023/12/25 09:34:56;;;;;;;2.70;1.10;;;;;;;8.91;100.00;98950.59;111654;1210;99001;-72
2023/12/25 09:37:25;;;;;;;3.50;1.40;;;;;;;8.92;100.00;98975.98;111405;1207;139301;-69
2023/12/25 09:39:51;;;;;;;4.50;0.90;;;;;;;8.96;100.00;98949.08;111646;1208;97820;-72
2023/12/25 09:42:17;;;;;;;1.30;0.90;;;;;;;8.95;100.00;98956.59;111533;1208;99047;-69
2023/12/25 09:44:43;;;;;;;5.60;1.10;;;;;;;8.97;100.00;98956.61;111621;1210;139540;-69
2023/12/25 09:47:12;;;;;;;3.50;0.90;;;;;;;8.98;100.00;98942.83;111618;1208;107311;-69
2023/12/25 09:49:38;;;;;;;1.50;0.80;;;;;;;9.01;100.00;98982.74;111435;1212;139025;-69
2023/12/25 09:52:03;;;;;;;6.70;1.50;;;;;;;9.05;100.00;98965.73;111001;1209;98947;-69
2023/12/25 09:54:30;;;;;;;3.10;1.10;;;;;;;9.05;100.00;98956.64;111089;1210;98962;-69
2023/12/25 09:56:58;;;;;;;8.10;1.00;;;;;;;9.05;100.00;98961.27;110852;1211;139205;-69
2023/12/25 09:59:27;;;;;;;6.80;1.40;;;;;;;9.06;100.00;98958.19;110904;1208;98944;-69
2023/12/25 10:01:53;;;;;;;4.70;0.90;;;;;;;9.04;99.92;98961.68;111025;1206;138827;-69
2023/12/25 10:04:21;;;;;;;7.60;1.30;;;;;;;9.07;99.98;98982.20;110827;1211;99026;-69
2023/12/25 10:06:48;;;;;;;3.00;1.00;;;;;;;9.13;100.00;98969.49;110944;1208;99116;-69
2023/12/25 10:09:13;;;;;;;7.00;1.70;;;;;;;9.16;100.00;98977.19;110684;1212;138637;-69
2023/12/25 10:11:39;;;;;;;2.70;0.90;;;;;;;9.20;99.98;98982.10;111398;1205;99092;-70
2023/12/25 10:14:04;;;;;;;6.00;1.30;;;;;;;9.20;99.78;98974.23;111445;1211;139356;-70
2023/12/25 10:16:29;;;;;;;3.90;1.10;;;;;;;9.17;99.57;99008.98;111565;1210;98915;-69
2023/12/25 10:18:56;;;;;;;5.70;1.20;;;;;;;9.19;99.62;98994.93;111687;1206;98965;-69
2023/12/25 10:21:22;;;;;;;7.40;1.20;;;;;;;9.19;99.33;98986.40;111590;1211;138154;-69
2023/12/25 10:23:48;;;;;;;3.40;1.10;;;;;;;9.18;99.19;98996.46;111477;1206;98954;-69
2023/12/25 10:26:27;;;;;;;4.50;0.90;;;;;;;9.19;98.98;99004.08;111067;1211;138988;-71
2023/12/25 10:28:52;;;;;;;7.20;1.00;;;;;;;9.22;98.92;99011.50;111624;1209;107510;-69
2023/12/25 10:31:27;;;;;;;5.80;1.20;;;;;;;9.27;98.68;99016.02;111392;1210;139156;-74
2023/12/25 10:33:58;;;;;;;6.70;1.30;;;;;;;9.33;98.76;99015.10;111444;1210;101649;-73
2023/12/25 10:36:24;;;;;;;5.50;1.60;;;;;;;9.33;98.46;99009.04;110867;1209;113069;-73
2023/12/25 10:38:50;;;;;;;6.10;1.30;;;;;;;9.33;98.47;99026.33;111123;1206;139173;-73
2023/12/25 10:41:20;;;;;;;5.10;1.00;;;;;;;9.35;98.28;99012.65;111607;1207;99291;-72
2023/12/25 10:43:52;;;;;;;4.40;1.10;;;;;;;9.35;97.94;99012.09;111593;1214;138427;-73
2023/12/25 10:46:20;;;;;;;9.00;2.10;;;;;;;9.33;97.76;99012.95;111606;1209;99050;-73
2023/12/25 10:48:50;;;;;;;3.80;1.10;;;;;;;9.34;97.79;99021.07;111699;1208;111425;-74
2023/12/25 10:51:23;;;;;;;2.20;1.30;;;;;;;9.38;97.62;99031.19;111051;1206;138668;-73
2023/12/25 10:53:49;;;;;;;5.60;1.10;;;;;;;9.37;97.20;99023.73;111728;1211;107611;-72
2023/12/25 10:56:19;;;;;;;7.30;0.80;;;;;;;9.38;96.90;99035.44;111416;1210;139233;-72
2023/12/25 10:58:48;;;;;;;5.60;1.40;;;;;;;9.39;96.82;99055.88;111757;1209;99307;-73
2023/12/25 11:01:25;;;;;;;3.00;0.90;;;;;;;9.45;96.82;99039.80;111463;1208;138617;-71
2023/12/25 11:03:54;;;;;;;4.20;1.00;;;;;;;9.48;96.49;99022.16;111508;1207;100166;-71
2023/12/25 11:06:22;;;;;;;4.60;1.50;;;;;;;9.50;96.52;99036.45;111573;1211;107531;-72
2023/12/25 11:08:48;;;;;;;4.90;1.40;;;;;;;9.56;96.57;99023.97;111430;1211;139848;-73
2023/12/25 11:11:14;;;;;;;6.80;1.40;;;;;;;9.61;96.39;99020.98;111583;1211;98998;-74
2023/12/25 11:13:41;;;;;;;2.80;0.80;;;;;;;9.63;96.22;99020.25;111579;1206;137796;-73
2023/12/25 11:16:07;;;;;;;5.40;1.40;;;;;;;9.63;95.73;99019.04;111570;1206;107920;-72